CDT,Max TemperatureF,Mean TemperatureF,Min TemperatureF,Max Dew PointF,MeanDew PointF,Min DewpointF,Max Humidity, Mean Humidity, Min Humidity, Max Sea Level PressureIn, Mean Sea Level PressureIn, Min Sea Level PressureIn, Max VisibilityMiles, Mean VisibilityMiles, Min VisibilityMiles, Max Wind SpeedMPH, Mean Wind SpeedMPH, Max Gust SpeedMPH,PrecipitationIn, CloudCover, Events, WindDirDegrees
2013-9-1,84,78,71,74,71,69,87,76,65,29.87,29.82,29.75,10,9,7,23,7,31,0.21,1,Rain-Thunderstorm,210
2013-9-2,89,77,65,75,70,63,93,72,50,29.91,29.87,29.83,10,8,5,13,3,17,0.00,2,,310
2013-9-3,86,75,63,66,62,60,93,68,42,30.05,29.99,29.92,10,10,9,13,3,15,0.00,1,,15
2013-9-4,85,72,58,63,59,55,93,67,40,30.15,30.09,30.05,10,6,0,10,2,14,0.00,0,Fog,13
2013-9-5,86,71,56,65,59,55,100,72,44,30.19,30.15,30.12,10,5,0,9,2,12,0.00,1,Fog,89
2013-9-6,88,76,64,69,65,62,93,70,46,30.17,30.12,30.05,10,6,0,8,2,12,0.00,0,Fog,119
2013-9-7,91,77,62,69,64,60,93,70,47,30.08,30.03,29.95,10,6,1,10,3,16,0.00,0,,228
2013-9-8,89,78,66,74,69,64,93,74,55,29.98,29.94,29.90,10,8,2,8,2,12,0.00,0,,160
2013-9-9,94,84,74,74,72,71,93,71,49,30.00,29.97,29.93,10,7,4,12,4,14,0.00,1,,186
2013-9-10,94,85,75,75,72,67,85,67,49,30.13,30.08,30.01,10,8,6,10,4,13,0.01,1,,183
2013-9-11,94,82,69,73,70,65,97,75,52,30.16,30.12,30.04,10,4,0,21,2,31,0.04,1,Fog-Rain-Thunderstorm,180
2013-9-12,91,79,66,74,69,62,93,71,49,30.05,30.00,29.93,10,8,3,14,5,18,0.00,1,,313
2013-9-13,79,68,56,60,54,50,86,63,39,30.07,30.03,29.99,10,10,10,18,6,25,0.00,1,,25
2013-9-14,76,63,50,53,49,46,96,66,36,30.14,30.08,30.05,10,10,8,14,4,18,0.00,0,,69
2013-9-15,82,65,48,57,52,46,93,65,36,30.10,30.07,30.05,10,8,2,12,3,17,0.00,0,,220
2013-9-16,77,69,61,64,61,57,87,76,64,30.20,30.16,30.09,10,10,10,13,5,23,0.01,5,,20
2013-9-17,83,73,63,65,62,59,93,72,51,30.20,30.14,30.08,10,8,5,9,4,,0.00,1,,68
2013-9-18,87,77,66,70,68,63,90,72,53,30.13,30.06,30.01,10,8,5,12,5,15,0.00,2,,178
2013-9-19,88,80,72,72,70,68,90,75,59,30.07,30.01,29.95,10,9,6,14,6,18,0.00,1,,187
2013-9-20,80,74,67,72,69,65,97,83,69,29.95,29.89,29.82,10,6,1,18,5,23,0.76,7,Rain,299
2013-9-21,76,65,53,68,55,49,93,66,38,29.92,29.87,29.83,10,9,3,21,7,26,0.02,3,Rain,354
2013-9-22,77,63,49,54,51,47,93,66,39,29.99,29.94,29.91,10,10,5,13,3,16,0.00,0,,53
2013-9-23,79,64,48,57,51,46,93,68,42,30.02,29.96,29.92,10,6,0,12,3,15,0.00,0,Fog,89
2013-9-24,79,66,53,67,60,53,93,80,67,29.95,29.89,29.81,10,4,0,15,3,21,0.77,4,Fog-Rain-Thunderstorm,151
2013-9-25,83,71,58,68,63,57,97,76,55,29.87,29.83,29.79,10,7,0,10,2,20,0.00,3,Fog,85
2013-9-26,85,72,59,66,61,58,100,74,47,30.02,29.93,29.86,10,4,0,9,2,16,0.00,1,Fog,93
2013-9-27,83,69,55,63,57,53,100,69,37,30.12,30.05,30.01,10,4,0,9,2,16,0.00,0,Fog,95
2013-9-28,83,71,59,61,58,55,87,64,40,30.12,30.06,30.01,10,10,9,15,7,21,0.00,2,,169
2013-9-29,70,67,64,63,62,57,93,80,66,30.05,30.02,29.98,10,6,1,10,4,13,1.28,8,Rain,174
2013-9-30,70,68,65,64,64,63,93,89,84,30.01,29.98,29.94,10,5,1,9,3,13,T,8,,164